WetterOnline ( https://www.wetteronline.de )

Wetter aktuell Nakskov

Aktuelles Wetter: Abed (9m)

6-stündlich | Neueste Meldungen
Ortszeit Temperatur Wetter
Fr, 03.04. 2:00 4.4° C fast wolkenlos
Do, 02.04. 20:00 6.4° C bewölkt
Do, 02.04. 14:00 9.9° C wolkig
Do, 02.04. 8:00 5.7° C bedeckt
Do, 02.04. 2:00 5.7° C bewölkt
Mi, 01.04. 20:00 7.0° C bedeckt
Mi, 01.04. 14:00 7.9° C bewölkt
Mi, 01.04. 8:00 5.0° C bedeckt
Ortszeit Temperatur Wetter
Fr, 03.04. 7:00 3.1° C wolkenlos
Fr, 03.04. 6:00 3.5° C bewölkt
Fr, 03.04. 5:00 3.4° C fast wolkenlos
Fr, 03.04. 4:00 3.9° C fast wolkenlos
Fr, 03.04. 3:00 4.4° C fast wolkenlos
Fr, 03.04. 2:00 4.4° C fast wolkenlos
Ortszeit Relative Feuchte Sichtweite
Fr, 03.04. 2:00 69% 17 km
Do, 02.04. 20:00 93% 14 km
Do, 02.04. 14:00 60% 30 km
Do, 02.04. 8:00 85% 28 km
Do, 02.04. 2:00 82% 24 km
Mi, 01.04. 20:00 61% 30 km
Mi, 01.04. 14:00 75% 23 km
Mi, 01.04. 8:00 89% 24 km
Ortszeit Relative Feuchte Sichtweite
Fr, 03.04. 7:00 85% 26 km
Fr, 03.04. 6:00 81% 25 km
Fr, 03.04. 5:00 83% 26 km
Fr, 03.04. 4:00 81% 18 km
Fr, 03.04. 3:00 73% 17 km
Fr, 03.04. 2:00 69% 17 km
Ortszeit Niederschlagsmenge Niederschlagsart
Fr, 03.04. 2:00 0.5 l/m2 in 6 Std. Schauer
Do, 02.04. 20:00 0.1 l/m2 in 3 Std. Regenschauer
Do, 02.04. 14:00 keine Meldung -
Do, 02.04. 8:00 0.1 l/m2 in 12 Std. Regenschauer
Do, 02.04. 2:00 0.0 l/m2 in 3 Std. -
Mi, 01.04. 20:00 0.0 l/m2 in 3 Std. -
Mi, 01.04. 14:00 0.1 l/m2 in 3 Std. Regenschauer
Mi, 01.04. 8:00 0.3 l/m2 in 12 Std. Schauer
Ortszeit Niederschlagsmenge Niederschlagsart
Fr, 03.04. 7:00 0.0 l/m2 in 1 Std. -
Fr, 03.04. 6:00 0.0 l/m2 in 1 Std. -
Fr, 03.04. 5:00 0.0 l/m2 in 1 Std. -
Fr, 03.04. 4:00 0.0 l/m2 in 1 Std. -
Fr, 03.04. 3:00 0.0 l/m2 in 1 Std. -
Fr, 03.04. 2:00 keine Meldung -
Ortszeit Stärke Spitze Richtung
km/h Bft. km/h Grad Sektor
Fr, 03.04. 2:00 31 5 61 260° W
Do, 02.04. 20:00 33 5 - 230° SW
Do, 02.04. 14:00 46 6 69 230° SW
Do, 02.04. 8:00 22 4 - 240° SW
Do, 02.04. 2:00 22 4 - 250° W
Mi, 01.04. 20:00 22 4 - 260° W
Mi, 01.04. 14:00 31 5 - 250° W
Mi, 01.04. 8:00 17 3 - 250° W
Ortszeit Stärke Spitze Richtung
km/h Bft. km/h Grad Sektor
Fr, 03.04. 7:00 19 3 - 260° W
Fr, 03.04. 6:00 24 4 - 270° W
Fr, 03.04. 5:00 24 4 - 270° W
Fr, 03.04. 4:00 28 4 - 270° W
Fr, 03.04. 3:00 30 5 - 260° W
Fr, 03.04. 2:00 31 5 61 260° W
Ortszeit Untergrenze Bedeckung Gattung
total tief tief mittel hoch
Fr, 03.04. 2:00 1020 m 1/8 1/8 - - -
Do, 02.04. 20:00 240 m 7/8 7/8 - - -
Do, 02.04. 14:00 1500 m 7/8 7/8 - - -
Do, 02.04. 8:00 480 m 8/8 8/8 - - -
Do, 02.04. 2:00 600 m 7/8 7/8 - - -
Mi, 01.04. 20:00 2100 m 8/8 8/8 - - -
Mi, 01.04. 14:00 570 m 7/8 7/8 - - -
Mi, 01.04. 8:00 330 m 8/8 8/8 - - -
Ortszeit Bedeckungsgrad in Achtel und Wolkenuntergrenze
Fr, 03.04. 7:00 keine Wolken
Fr, 03.04. 6:00 1(630m) 3(1110m) 7(2700m)
Fr, 03.04. 5:00 1(570m)
Fr, 03.04. 4:00 1(540m)
Fr, 03.04. 3:00 1(840m)
Fr, 03.04. 2:00 1(1020m)
Ortszeit Luftdruck NN (hPa) Tendenz (hPa in 3 Std.)
Fr, 03.04. 2:00 1001 0,0
Do, 02.04. 20:00 1000 - 1,6
Do, 02.04. 14:00 1004 - 2,5
Do, 02.04. 8:00 1008 - 0,9
Do, 02.04. 2:00 1011 - 1,2
Mi, 01.04. 20:00 1013 - 0,6
Mi, 01.04. 14:00 1015 - 1,6
Mi, 01.04. 8:00 1018 - 1,3
Ortszeit Luftdruck NN (hPa) Tendenz (hPa in 3 Std.)
Fr, 03.04. 7:00 1005 + 2,4
Fr, 03.04. 6:00 1004 + 2,3
Fr, 03.04. 5:00 1003 + 1,8
Fr, 03.04. 4:00 1002 + 0,9
Fr, 03.04. 3:00 1002 + 0,3
Fr, 03.04. 2:00 1001 0,0
Ortszeit Schneehöhe (cm)
Fr, 03.04. 2:00 -
Do, 02.04. 20:00 -
Do, 02.04. 14:00 -
Do, 02.04. 8:00 -
Do, 02.04. 2:00 -
Mi, 01.04. 20:00 -
Mi, 01.04. 14:00 -
Mi, 01.04. 8:00 -
Ortszeit Schneehöhe (cm)
Fr, 03.04. 7:00 -
Fr, 03.04. 6:00 -
Fr, 03.04. 5:00 -
Fr, 03.04. 4:00 -
Fr, 03.04. 3:00 -
Fr, 03.04. 2:00 -
Link zu dieser Seite / Seite empfehlen

Das Wetter in ...